Time;durP1;ratioP1;P1;durP2;ratioP2;P2;SDS_P1;SDS_P2;PMS_P1;PMS_P2;Temp;Humidity;BMP_temperature;BMP_pressure;BME280_temperature;BME280_humidity;BME280_pressure;Samples;Min_cycle;Max_cycle;Signal;HPM_P1;HPM_P2
2024/03/12 00:01:40;;;;;;;60.10;37.90;;;;;;;7.85;83.92;96254.89;104967;1254;97820;-86
2024/03/12 00:04:09;;;;;;;61.10;38.40;;;;;;;7.81;83.93;96256.98;104890;1259;97105;-86
2024/03/12 00:06:37;;;;;;;54.40;36.30;;;;;;;7.81;83.98;96253.27;104815;1267;102241;-86
2024/03/12 00:09:09;;;;;;;57.00;37.60;;;;;;;7.82;84.11;96247.65;104772;1258;101068;-86
2024/03/12 00:11:37;;;;;;;63.00;38.20;;;;;;;7.83;84.07;96248.13;104833;1267;99704;-85
2024/03/12 00:14:05;;;;;;;57.20;37.30;;;;;;;7.85;83.97;96248.76;104888;1269;97408;-86
2024/03/12 00:16:32;;;;;;;55.50;36.90;;;;;;;7.85;83.89;96245.11;104971;1267;97071;-86
2024/03/12 00:19:00;;;;;;;61.50;37.30;;;;;;;7.87;84.02;96246.71;104878;1259;102337;-87
2024/03/12 00:21:28;;;;;;;58.10;37.60;;;;;;;7.87;83.97;96244.85;104891;1259;101167;-87
2024/03/12 00:23:58;;;;;;;50.30;34.20;;;;;;;7.86;84.03;96246.69;104872;1259;99119;-86
2024/03/12 00:26:27;;;;;;;51.80;34.90;;;;;;;7.84;83.93;96242.13;104846;1259;97208;-86
2024/03/12 00:28:55;;;;;;;55.40;37.30;;;;;;;7.83;84.06;96241.31;104902;1259;97193;-87
2024/03/12 00:31:24;;;;;;;52.30;34.90;;;;;;;7.82;84.14;96240.41;104857;1273;102417;-87
2024/03/12 00:33:52;;;;;;;54.20;35.50;;;;;;;7.81;84.05;96242.11;104832;1259;101397;-87
2024/03/12 00:36:19;;;;;;;53.20;34.50;;;;;;;7.81;84.08;96239.56;104797;1268;99448;-87
2024/03/12 00:38:47;;;;;;;53.40;34.20;;;;;;;7.80;84.02;96234.06;104882;1259;97605;-87
2024/03/12 00:41:15;;;;;;;56.30;36.50;;;;;;;7.80;84.01;96236.55;104981;1259;97079;-87
2024/03/12 00:43:43;;;;;;;53.10;33.50;;;;;;;7.79;84.04;96234.98;104823;1259;102227;-86
2024/03/12 00:46:11;;;;;;;49.20;32.90;;;;;;;7.77;84.12;96236.52;104867;1270;101451;-87
2024/03/12 00:48:39;;;;;;;50.20;34.20;;;;;;;7.74;84.14;96233.95;104869;1258;99849;-86
2024/03/12 00:51:08;;;;;;;52.50;33.80;;;;;;;7.68;84.11;96237.78;104897;1259;96599;-87
2024/03/12 00:53:36;;;;;;;50.70;33.60;;;;;;;7.64;84.28;96238.10;104913;1259;97102;-86
2024/03/12 00:56:04;;;;;;;47.70;33.20;;;;;;;7.61;84.26;96237.71;104880;1260;102147;-87
2024/03/12 00:58:33;;;;;;;50.30;32.20;;;;;;;7.62;84.43;96240.09;104811;1260;101515;-88
2024/03/12 01:01:00;;;;;;;52.40;33.80;;;;;;;7.64;84.57;96240.50;104919;1258;98624;-81
2024/03/12 01:03:29;;;;;;;52.90;34.60;;;;;;;7.65;84.40;96243.74;104985;1259;96574;-81
2024/03/12 01:05:57;;;;;;;53.50;34.10;;;;;;;7.65;84.45;96239.70;105033;1259;97074;-81
2024/03/12 01:08:25;;;;;;;55.30;35.80;;;;;;;7.62;84.58;96238.66;105000;1257;101429;-87
2024/03/12 01:10:53;;;;;;;54.00;36.80;;;;;;;7.61;84.64;96237.60;104808;1260;101385;-87
2024/03/12 01:13:21;;;;;;;57.90;39.10;;;;;;;7.59;84.67;96237.45;104838;1269;98980;-86
2024/03/12 01:15:52;;;;;;;71.20;43.30;;;;;;;7.56;84.75;96236.23;104894;1254;97518;-88
2024/03/12 01:18:20;;;;;;;61.00;37.80;;;;;;;7.56;84.89;96230.86;104911;1260;97527;-87
2024/03/12 01:20:49;;;;;;;54.90;35.70;;;;;;;7.57;84.93;96228.67;104833;1259;101971;-87
2024/03/12 01:23:17;;;;;;;60.30;36.80;;;;;;;7.57;84.89;96226.07;104905;1259;101426;-87
2024/03/12 01:25:46;;;;;;;59.40;38.90;;;;;;;7.58;85.03;96221.11;104678;1257;100080;-88
2024/03/12 01:28:14;;;;;;;59.90;38.60;;;;;;;7.59;85.00;96220.43;104772;1260;97401;-87
2024/03/12 01:30:42;;;;;;;63.40;39.30;;;;;;;7.62;84.97;96212.95;104817;1260;97975;-89
2024/03/12 01:33:10;;;;;;;68.30;39.40;;;;;;;7.63;85.03;96212.58;104856;1259;101896;-88
2024/03/12 01:35:38;;;;;;;60.60;37.80;;;;;;;7.61;84.98;96214.17;104816;1259;101454;-88
2024/03/12 01:38:06;;;;;;;60.50;38.70;;;;;;;7.57;84.99;96218.21;104773;1254;99981;-88
2024/03/12 01:40:36;;;;;;;57.00;36.20;;;;;;;7.54;85.09;96223.27;104955;1259;97263;-88
2024/03/12 01:43:06;;;;;;;54.60;34.80;;;;;;;7.52;85.06;96221.92;104807;1259;97005;-89
2024/03/12 01:45:34;;;;;;;57.30;35.00;;;;;;;7.52;85.18;96221.31;104932;1254;102189;-89
2024/03/12 01:48:08;;;;;;;57.90;35.90;;;;;;;7.50;85.30;96223.30;104810;1259;101293;-87
2024/03/12 01:50:37;;;;;;;56.00;34.60;;;;;;;7.48;85.22;96226.48;104933;1267;97724;-87
2024/03/12 01:53:05;;;;;;;57.30;35.30;;;;;;;7.48;85.27;96230.07;104762;1269;97893;-88
2024/03/12 01:55:37;;;;;;;56.10;33.70;;;;;;;7.48;85.38;96228.34;104878;1268;98431;-88
2024/03/12 01:58:05;;;;;;;52.10;32.70;;;;;;;7.46;85.29;96227.37;104931;1254;100728;-87
2024/03/12 02:00:33;;;;;;;56.20;34.90;;;;;;;7.45;85.40;96229.60;104993;1257;101139;-80
2024/03/12 02:03:00;;;;;;;55.60;33.80;;;;;;;7.45;85.37;96231.52;104944;1259;99153;-80
2024/03/12 02:05:29;;;;;;;58.10;34.80;;;;;;;7.44;85.42;96230.15;104974;1268;96572;-80
2024/03/12 02:07:57;;;;;;;51.30;32.90;;;;;;;7.44;85.44;96229.58;104970;1260;97215;-79
2024/03/12 02:10:26;;;;;;;58.10;35.90;;;;;;;7.46;85.54;96231.13;105009;1260;101291;-80
2024/03/12 02:12:54;;;;;;;53.40;33.40;;;;;;;7.45;85.56;96232.91;105056;1259;101346;-80
2024/03/12 02:15:22;;;;;;;54.60;34.60;;;;;;;7.43;85.57;96229.09;104887;1259;99837;-80
2024/03/12 02:17:51;;;;;;;57.30;34.80;;;;;;;7.43;85.64;96226.19;104805;1259;97855;-88
2024/03/12 02:20:21;;;;;;;55.80;35.10;;;;;;;7.43;85.46;96226.69;104966;1259;98450;-88
2024/03/12 02:22:48;;;;;;;57.70;35.20;;;;;;;7.42;85.66;96225.66;104987;1259;101867;-79
2024/03/12 02:25:17;;;;;;;58.30;34.30;;;;;;;7.40;85.64;96219.31;104936;1259;100229;-79
2024/03/12 02:27:45;;;;;;;59.60;35.90;;;;;;;7.40;85.71;96215.93;104933;1260;100373;-79
2024/03/12 02:30:13;;;;;;;58.90;35.90;;;;;;;7.39;85.76;96219.20;104817;1260;96572;-79
2024/03/12 02:32:40;;;;;;;63.80;36.00;;;;;;;7.38;85.78;96218.98;104937;1259;97080;-79
2024/03/12 02:35:11;;;;;;;61.50;36.80;;;;;;;7.39;85.83;96215.69;104937;1259;102364;-79
2024/03/12 02:37:40;;;;;;;63.80;37.00;;;;;;;7.40;85.93;96211.10;104920;1265;101472;-79
2024/03/12 02:40:12;;;;;;;62.10;36.70;;;;;;;7.41;85.93;96210.88;105010;1259;100107;-79
2024/03/12 02:42:41;;;;;;;61.00;35.80;;;;;;;7.43;85.89;96214.13;104908;1276;96839;-79
2024/03/12 02:45:10;;;;;;;57.70;36.40;;;;;;;7.44;85.92;96215.27;104995;1254;97003;-81
2024/03/12 02:47:38;;;;;;;58.00;35.40;;;;;;;7.45;85.94;96214.08;105020;1260;101139;-81
2024/03/12 02:50:06;;;;;;;59.40;36.20;;;;;;;7.47;85.88;96212.25;104882;1257;101561;-81
2024/03/12 02:52:34;;;;;;;62.90;35.30;;;;;;;7.47;85.90;96209.97;104904;1270;99906;-81
2024/03/12 02:55:02;;;;;;;62.20;37.60;;;;;;;7.46;85.91;96210.69;104979;1259;97896;-81
2024/03/12 02:57:30;;;;;;;63.20;36.10;;;;;;;7.43;86.01;96212.98;104896;1260;97004;-81
2024/03/12 02:59:58;;;;;;;55.90;34.70;;;;;;;7.39;85.94;96210.61;105072;1268;101953;-81
2024/03/12 03:02:28;;;;;;;57.70;35.30;;;;;;;7.38;86.00;96212.55;105124;1268;101377;-81
2024/03/12 03:04:55;;;;;;;53.40;33.80;;;;;;;7.40;86.17;96210.35;105002;1273;100142;-81
2024/03/12 03:07:24;;;;;;;53.90;33.90;;;;;;;7.41;86.04;96205.43;104709;1262;97759;-81
2024/03/12 03:09:52;;;;;;;53.50;32.50;;;;;;;7.42;86.00;96208.27;104959;1254;97073;-81
2024/03/12 03:12:21;;;;;;;49.00;30.40;;;;;;;7.40;86.00;96211.80;104918;1258;101826;-80
2024/03/12 03:14:48;;;;;;;49.60;31.50;;;;;;;7.37;86.04;96210.55;105000;1268;101353;-81
2024/03/12 03:17:16;;;;;;;52.50;33.20;;;;;;;7.36;86.08;96210.14;104949;1268;99330;-85
2024/03/12 03:19:44;;;;;;;49.00;30.90;;;;;;;7.35;86.08;96214.95;104895;1269;96646;-87
2024/03/12 03:22:11;;;;;;;49.60;31.80;;;;;;;7.32;86.10;96216.30;104819;1260;96981;-79
2024/03/12 03:24:39;;;;;;;50.00;31.30;;;;;;;7.32;86.19;96219.07;104991;1254;102282;-80
2024/03/12 03:27:07;;;;;;;48.60;30.20;;;;;;;7.32;86.21;96222.29;105058;1259;101588;-79
2024/03/12 03:29:38;;;;;;;48.50;31.40;;;;;;;7.33;86.28;96219.73;105055;1270;99741;-79
2024/03/12 03:32:06;;;;;;;50.60;30.80;;;;;;;7.35;86.36;96218.02;104925;1256;96660;-87
2024/03/12 03:34:34;;;;;;;49.80;31.50;;;;;;;7.37;86.34;96221.44;105010;1260;98229;-88
2024/03/12 03:37:02;;;;;;;57.60;33.30;;;;;;;7.39;86.28;96220.35;104864;1268;101157;-87
2024/03/12 03:39:30;;;;;;;51.10;31.40;;;;;;;7.39;86.19;96218.04;104824;1264;101332;-79
2024/03/12 03:41:57;;;;;;;51.30;32.70;;;;;;;7.39;86.20;96219.02;105040;1256;98434;-80
2024/03/12 03:44:28;;;;;;;54.50;32.50;;;;;;;7.38;86.16;96221.56;104915;1260;97077;-79
2024/03/12 03:46:55;;;;;;;54.50;33.50;;;;;;;7.34;86.25;96221.49;105023;1254;97636;-79
2024/03/12 03:49:23;;;;;;;54.00;32.70;;;;;;;7.29;86.28;96218.13;105004;1260;102193;-79
2024/03/12 03:51:52;;;;;;;52.30;32.20;;;;;;;7.30;86.35;96221.80;104930;1269;101227;-79
2024/03/12 03:54:19;;;;;;;52.70;32.40;;;;;;;7.31;86.40;96221.64;104995;1259;100154;-79
2024/03/12 03:56:47;;;;;;;56.70;32.10;;;;;;;7.31;86.35;96222.75;104997;1264;96823;-79
2024/03/12 03:59:16;;;;;;;46.00;29.60;;;;;;;7.28;86.40;96220.91;104919;1275;97558;-87
2024/03/12 04:01:44;;;;;;;49.40;31.10;;;;;;;7.27;86.35;96218.40;104914;1254;101315;-79
2024/03/12 04:04:15;;;;;;;52.80;32.00;;;;;;;7.26;86.48;96217.16;105007;1268;101314;-79
2024/03/12 04:06:43;;;;;;;55.80;31.80;;;;;;;7.27;86.55;96217.11;104942;1258;99405;-79
2024/03/12 04:09:12;;;;;;;52.90;31.50;;;;;;;7.26;86.51;96218.11;105006;1269;97852;-79
2024/03/12 04:11:42;;;;;;;47.80;30.00;;;;;;;7.24;86.55;96215.70;104980;1259;96593;-79
2024/03/12 04:14:09;;;;;;;44.30;28.70;;;;;;;7.21;86.56;96218.73;104997;1260;102048;-79
2024/03/12 04:16:37;;;;;;;47.60;28.70;;;;;;;7.17;86.52;96220.63;104988;1260;100408;-79
2024/03/12 04:19:05;;;;;;;46.80;29.20;;;;;;;7.13;86.59;96220.53;104893;1260;107231;-87
2024/03/12 04:21:32;;;;;;;48.40;29.20;;;;;;;7.10;86.71;96220.83;104818;1275;96580;-87
2024/03/12 04:24:00;;;;;;;47.50;29.20;;;;;;;7.09;86.74;96220.62;104925;1260;97073;-86
2024/03/12 04:26:28;;;;;;;49.80;31.00;;;;;;;7.10;86.72;96220.12;104814;1260;102213;-86
2024/03/12 04:28:57;;;;;;;46.30;29.40;;;;;;;7.12;86.85;96222.48;104844;1271;101091;-87
2024/03/12 04:31:25;;;;;;;48.50;28.90;;;;;;;7.13;86.85;96225.64;104755;1259;98754;-85
2024/03/12 04:33:53;;;;;;;48.00;29.70;;;;;;;7.14;86.86;96223.40;104817;1260;97103;-85
2024/03/12 04:36:22;;;;;;;46.90;29.20;;;;;;;7.15;86.88;96227.86;104838;1267;97890;-86
2024/03/12 04:38:50;;;;;;;46.70;30.30;;;;;;;7.17;86.93;96227.31;104913;1258;102299;-85
2024/03/12 04:41:20;;;;;;;47.50;30.30;;;;;;;7.17;86.93;96226.36;104784;1268;101421;-85
2024/03/12 04:43:49;;;;;;;56.40;32.70;;;;;;;7.17;86.95;96232.96;104849;1258;99986;-86
2024/03/12 04:46:17;;;;;;;54.40;32.50;;;;;;;7.17;87.03;96236.40;104786;1268;96568;-79
2024/03/12 04:48:46;;;;;;;51.00;30.60;;;;;;;7.17;86.98;96233.88;104920;1259;97519;-79
2024/03/12 04:51:14;;;;;;;46.90;29.70;;;;;;;7.19;86.96;96233.45;104960;1267;101954;-80
2024/03/12 04:53:42;;;;;;;40.80;26.60;;;;;;;7.18;87.04;96238.12;105033;1257;100404;-80
2024/03/12 04:56:11;;;;;;;42.60;27.10;;;;;;;7.14;87.00;96238.44;104956;1260;98823;-85
2024/03/12 04:58:39;;;;;;;46.20;28.90;;;;;;;7.10;87.08;96242.49;104946;1269;97496;-85
2024/03/12 05:01:06;;;;;;;53.50;32.50;;;;;;;7.10;87.10;96244.55;105028;1267;97003;-81
2024/03/12 05:03:36;;;;;;;58.20;33.20;;;;;;;7.12;87.22;96249.79;105013;1270;102202;-81
2024/03/12 05:06:04;;;;;;;57.10;34.30;;;;;;;7.13;87.24;96249.30;105028;1259;101118;-82
2024/03/12 05:08:32;;;;;;;66.40;36.60;;;;;;;7.15;87.25;96252.47;105010;1260;98683;-81
2024/03/12 05:10:59;;;;;;;60.70;35.00;;;;;;;7.14;87.29;96257.71;104969;1260;97932;-81
2024/03/12 05:13:27;;;;;;;55.40;34.10;;;;;;;7.11;87.24;96253.30;104956;1270;97422;-82
2024/03/12 05:15:55;;;;;;;50.70;30.20;;;;;;;7.09;87.29;96255.34;104983;1254;102211;-81
2024/03/12 05:18:22;;;;;;;42.80;28.50;;;;;;;7.07;87.26;96260.51;105017;1260;101388;-80
2024/03/12 05:20:51;;;;;;;40.60;26.00;;;;;;;7.07;87.37;96267.48;105004;1254;100206;-80
2024/03/12 05:23:19;;;;;;;43.20;27.60;;;;;;;7.07;87.35;96269.92;105006;1254;96669;-80
2024/03/12 05:25:49;;;;;;;44.70;28.20;;;;;;;7.07;87.42;96272.52;104958;1260;97010;-80
2024/03/12 05:28:19;;;;;;;46.30;31.60;;;;;;;7.06;87.32;96270.16;105020;1263;102123;-80
2024/03/12 05:30:49;;;;;;;55.80;38.40;;;;;;;7.07;87.51;96268.77;105012;1268;101389;-79
2024/03/12 05:33:17;;;;;;;52.10;32.80;;;;;;;7.11;87.61;96270.39;104993;1261;99858;-81
2024/03/12 05:35:49;;;;;;;56.50;33.00;;;;;;;7.09;87.63;96272.43;105008;1273;96597;-80
2024/03/12 05:38:32;;;;;;;61.10;33.80;;;;;;;7.04;87.57;96278.27;104975;1260;96567;-80
2024/03/12 05:41:14;;;;;;;55.50;33.20;;;;;;;7.06;87.75;96281.70;104945;1261;102240;-81
2024/03/12 05:49:32;;;;;;;49.10;29.40;;;;;;;7.13;87.92;96286.50;105049;1270;97876;-80
2024/03/12 05:52:00;;;;;;;47.10;27.50;;;;;;;7.13;87.77;96296.75;105008;1268;97123;-81
2024/03/12 05:54:28;;;;;;;45.20;28.60;;;;;;;7.10;87.67;96299.99;105054;1267;102039;-80
2024/03/12 05:56:55;;;;;;;48.30;30.60;;;;;;;7.09;87.74;96296.20;104960;1260;101574;-81
2024/03/12 05:59:24;;;;;;;46.80;28.20;;;;;;;7.11;87.70;96294.45;104965;1277;99666;-81
2024/03/12 06:01:53;;;;;;;46.60;28.00;;;;;;;7.14;87.75;96297.11;105095;1255;97260;-81
2024/03/12 06:04:21;;;;;;;42.40;26.60;;;;;;;7.16;87.73;96298.21;105021;1264;97162;-80
2024/03/12 06:06:48;;;;;;;45.40;28.70;;;;;;;7.18;87.74;96296.17;104872;1269;146271;-80
2024/03/12 06:09:22;;;;;;;48.80;29.70;;;;;;;7.21;87.72;96298.48;104936;1260;101291;-78
2024/03/12 06:11:50;;;;;;;48.60;29.60;;;;;;;7.22;87.73;96300.91;105003;1260;100007;-81
2024/03/12 06:14:18;;;;;;;51.20;30.60;;;;;;;7.21;87.70;96303.44;104918;1260;97868;-81
2024/03/12 06:16:47;;;;;;;46.60;29.90;;;;;;;7.23;87.78;96305.12;104972;1260;97056;-81
2024/03/12 06:19:14;;;;;;;54.60;35.90;;;;;;;7.27;87.78;96307.11;104887;1261;102243;-80
2024/03/12 06:21:42;;;;;;;54.90;34.90;;;;;;;7.28;87.72;96307.50;105014;1263;101186;-80
2024/03/12 06:24:10;;;;;;;51.70;31.50;;;;;;;7.28;87.83;96307.59;104995;1267;99880;-80
2024/03/12 06:26:38;;;;;;;52.00;31.60;;;;;;;7.30;87.68;96313.23;104994;1269;96568;-81
2024/03/12 06:29:06;;;;;;;48.10;30.40;;;;;;;7.29;87.69;96310.72;105019;1255;97942;-81
2024/03/12 06:31:34;;;;;;;50.60;30.50;;;;;;;7.30;87.67;96309.92;105043;1267;102310;-81
2024/03/12 06:34:04;;;;;;;46.70;30.30;;;;;;;7.32;87.76;96314.26;105074;1260;101725;-81
2024/03/12 06:36:32;;;;;;;50.40;30.00;;;;;;;7.33;87.67;96316.65;104999;1267;99982;-82
2024/03/12 06:39:00;;;;;;;48.40;29.70;;;;;;;7.36;87.69;96317.61;104971;1267;97539;-81
2024/03/12 06:41:31;;;;;;;46.80;29.10;;;;;;;7.40;87.84;96316.51;105048;1267;97517;-82
2024/03/12 06:43:59;;;;;;;49.40;29.20;;;;;;;7.43;87.92;96319.00;105049;1268;101252;-81
2024/03/12 06:46:27;;;;;;;50.00;29.60;;;;;;;7.48;87.92;96322.77;105049;1260;101543;-82
2024/03/12 06:48:55;;;;;;;45.30;28.80;;;;;;;7.53;87.92;96322.60;104949;1268;98880;-82
2024/03/12 06:51:22;;;;;;;44.30;28.30;;;;;;;7.56;87.95;96323.83;104931;1259;97079;-86
2024/03/12 06:53:50;;;;;;;43.70;25.90;;;;;;;7.57;87.99;96326.13;104948;1258;97127;-85
2024/03/12 06:56:18;;;;;;;41.40;26.60;;;;;;;7.59;87.99;96329.18;105009;1268;101981;-85
2024/03/12 06:58:46;;;;;;;45.00;26.00;;;;;;;7.59;87.86;96335.48;104984;1268;101397;-85
2024/03/12 07:01:13;;;;;;;43.20;26.70;;;;;;;7.59;87.72;96336.61;104939;1258;101346;-86
2024/03/12 07:03:42;;;;;;;40.70;25.50;;;;;;;7.60;87.81;96339.79;104996;1267;97242;-86
2024/03/12 07:06:11;;;;;;;41.50;25.50;;;;;;;7.61;87.85;96341.22;104872;1259;97115;-85
2024/03/12 07:08:39;;;;;;;43.10;26.70;;;;;;;7.64;87.90;96339.30;104962;1264;102272;-85
2024/03/12 07:11:10;;;;;;;41.70;28.00;;;;;;;7.67;87.94;96339.40;104855;1267;101369;-85
2024/03/12 07:13:39;;;;;;;44.50;27.90;;;;;;;7.72;88.02;96339.60;104822;1260;98664;-88
2024/03/12 07:16:09;;;;;;;46.20;27.80;;;;;;;7.79;88.10;96337.89;104879;1270;96844;-81
2024/03/12 07:18:37;;;;;;;49.50;29.90;;;;;;;7.85;88.11;96338.41;105049;1254;97798;-81
2024/03/12 07:21:06;;;;;;;50.80;29.10;;;;;;;7.92;88.02;96334.89;104961;1261;102230;-81
2024/03/12 07:23:36;;;;;;;50.50;32.40;;;;;;;7.99;88.02;96338.36;105095;1269;108211;-82
2024/03/12 07:26:04;;;;;;;45.50;29.30;;;;;;;8.04;88.00;96338.42;105522;1254;99018;-82
2024/03/12 07:28:32;;;;;;;48.20;28.40;;;;;;;8.08;87.86;96341.43;105218;1257;96596;-81
2024/03/12 07:30:59;;;;;;;45.90;27.90;;;;;;;8.12;87.80;96342.09;105072;1270;97115;-86
2024/03/12 07:33:27;;;;;;;43.80;27.50;;;;;;;8.17;87.75;96344.32;105243;1254;102319;-85
2024/03/12 07:35:55;;;;;;;47.30;28.70;;;;;;;8.21;87.86;96342.98;105219;1254;100108;-86
2024/03/12 07:38:24;;;;;;;48.40;28.90;;;;;;;8.28;87.88;96345.50;105042;1261;100008;-86
2024/03/12 07:40:52;;;;;;;47.50;27.70;;;;;;;8.35;87.71;96343.30;104948;1268;96811;-86
2024/03/12 07:43:20;;;;;;;50.10;28.70;;;;;;;8.41;87.64;96346.60;104919;1270;97833;-86
2024/03/12 07:45:49;;;;;;;47.80;27.80;;;;;;;8.48;87.86;96352.05;105050;1260;101877;-85
2024/03/12 07:48:17;;;;;;;49.20;28.00;;;;;;;8.58;87.84;96351.65;105167;1258;100140;-86
2024/03/12 07:50:45;;;;;;;46.60;28.60;;;;;;;8.69;87.66;96353.84;105024;1260;99468;-88
2024/03/12 07:53:12;;;;;;;54.10;29.60;;;;;;;8.77;87.46;96359.64;104895;1254;96657;-87
2024/03/12 07:55:42;;;;;;;47.40;28.80;;;;;;;8.82;87.23;96360.80;105003;1258;97128;-88
2024/03/12 07:58:10;;;;;;;54.90;29.40;;;;;;;8.90;87.46;96361.95;104997;1260;102309;-87
2024/03/12 08:00:38;;;;;;;43.90;27.30;;;;;;;8.99;87.43;96359.18;104957;1260;101072;-87
2024/03/12 08:03:07;;;;;;;48.30;27.80;;;;;;;9.02;86.98;96359.70;104920;1260;99386;-87
2024/03/12 08:05:35;;;;;;;42.80;25.20;;;;;;;9.04;87.02;96358.34;104985;1261;97355;-86
2024/03/12 08:08:04;;;;;;;34.10;22.10;;;;;;;9.12;86.95;96356.99;104998;1260;97896;-87
2024/03/12 08:10:33;;;;;;;33.90;21.90;;;;;;;9.16;86.48;96360.02;104894;1267;102234;-88
2024/03/12 08:13:01;;;;;;;36.90;23.30;;;;;;;9.17;86.29;96364.52;105015;1261;100554;-87
2024/03/12 08:15:29;;;;;;;41.80;22.70;;;;;;;9.24;86.34;96365.45;105066;1267;98669;-82
2024/03/12 08:17:57;;;;;;;35.80;24.00;;;;;;;9.34;86.52;96363.69;104993;1267;97919;-82
2024/03/12 08:20:25;;;;;;;33.50;21.80;;;;;;;9.46;86.53;96367.55;104988;1260;97089;-82
2024/03/12 08:22:52;;;;;;;31.70;22.10;;;;;;;9.52;86.33;96373.88;105026;1263;102280;-82
2024/03/12 08:25:20;;;;;;;33.60;22.80;;;;;;;9.57;86.09;96378.73;105118;1260;101368;-81
2024/03/12 08:27:48;;;;;;;37.00;24.90;;;;;;;9.58;85.82;96383.11;105013;1260;99031;-82
2024/03/12 08:30:16;;;;;;;33.80;23.70;;;;;;;9.59;85.62;96379.00;104977;1260;96600;-82
2024/03/12 08:32:44;;;;;;;39.00;24.80;;;;;;;9.59;85.40;96374.96;104966;1268;97602;-83
2024/03/12 08:35:11;;;;;;;38.10;24.90;;;;;;;9.59;85.37;96374.23;105007;1265;101268;-83
2024/03/12 08:37:39;;;;;;;38.10;24.80;;;;;;;9.63;85.38;96374.92;104985;1268;108797;-82
2024/03/12 08:40:08;;;;;;;40.40;25.20;;;;;;;9.67;85.33;96376.20;105000;1267;98668;-82
2024/03/12 08:42:36;;;;;;;36.00;25.40;;;;;;;9.72;85.34;96379.13;104945;1259;97212;-82
2024/03/12 08:45:04;;;;;;;34.50;23.60;;;;;;;9.79;85.49;96380.27;104998;1254;97762;-82
2024/03/12 08:47:32;;;;;;;38.40;24.90;;;;;;;9.86;85.26;96379.08;104989;1261;102077;-88
2024/03/12 08:49:59;;;;;;;39.20;25.00;;;;;;;9.87;85.02;96382.96;104970;1258;100358;-88
2024/03/12 08:52:29;;;;;;;42.00;27.10;;;;;;;9.88;84.92;96388.68;104952;1260;99963;-88
2024/03/12 08:54:57;;;;;;;47.90;27.00;;;;;;;9.92;84.95;96386.95;105010;1259;96830;-88
2024/03/12 08:57:26;;;;;;;39.60;25.40;;;;;;;9.92;84.64;96388.68;104951;1257;97309;-87
2024/03/12 08:59:53;;;;;;;36.50;25.10;;;;;;;9.89;84.56;96387.20;104969;1268;102158;-88
2024/03/12 09:02:21;;;;;;;39.90;24.30;;;;;;;9.92;84.62;96392.45;105011;1260;101236;-82
2024/03/12 09:04:49;;;;;;;38.00;24.30;;;;;;;9.93;84.62;96395.34;105075;1260;99144;-82
2024/03/12 09:07:17;;;;;;;39.10;24.10;;;;;;;9.85;84.52;96395.35;105022;1267;96834;-82
2024/03/12 09:09:45;;;;;;;46.20;29.50;;;;;;;9.85;84.67;96395.27;105016;1260;97016;-82
2024/03/12 09:12:13;;;;;;;47.60;30.20;;;;;;;9.84;84.66;96392.95;105072;1254;101778;-82
2024/03/12 09:14:41;;;;;;;45.30;29.30;;;;;;;9.84;84.73;96395.81;104979;1268;101749;-82
2024/03/12 09:17:09;;;;;;;42.40;28.30;;;;;;;9.89;84.94;96396.58;104937;1267;100063;-87
2024/03/12 09:19:37;;;;;;;47.50;29.90;;;;;;;9.95;84.90;96396.19;105002;1261;96510;-86
2024/03/12 09:22:05;;;;;;;43.20;29.30;;;;;;;10.04;84.94;96397.45;105005;1259;97105;-87
2024/03/12 09:24:32;;;;;;;46.30;29.30;;;;;;;10.17;85.08;96396.97;104926;1257;102387;-82
2024/03/12 09:27:00;;;;;;;41.50;26.60;;;;;;;10.28;84.94;96396.66;104928;1260;101549;-82
2024/03/12 09:29:28;;;;;;;44.10;27.00;;;;;;;10.33;84.76;96395.09;104916;1259;98765;-82
2024/03/12 09:31:56;;;;;;;45.40;28.70;;;;;;;10.36;84.67;96394.75;104935;1259;97511;-82
2024/03/12 09:34:25;;;;;;;41.10;27.40;;;;;;;10.43;84.80;96394.41;104982;1261;97103;-83
2024/03/12 09:36:53;;;;;;;39.60;26.30;;;;;;;10.54;84.45;96393.84;104973;1260;100775;-82
2024/03/12 09:39:23;;;;;;;39.80;25.20;;;;;;;10.59;83.86;96394.34;105001;1260;101112;-82
2024/03/12 09:41:55;;;;;;;38.10;24.80;;;;;;;10.62;83.94;96393.60;104940;1269;101382;-82
2024/03/12 09:44:23;;;;;;;36.70;24.40;;;;;;;10.70;83.52;96392.59;104970;1260;97218;-83
2024/03/12 09:46:54;;;;;;;39.10;24.80;;;;;;;10.71;83.49;96394.64;104915;1260;97128;-82
2024/03/12 09:49:22;;;;;;;38.50;26.00;;;;;;;10.72;83.47;96395.95;104945;1259;101988;-82
2024/03/12 09:51:50;;;;;;;37.90;25.80;;;;;;;10.73;83.72;96396.89;104998;1274;101775;-82
2024/03/12 09:54:19;;;;;;;40.10;25.60;;;;;;;10.82;83.55;96399.62;104932;1260;100144;-82
2024/03/12 09:56:47;;;;;;;37.50;25.50;;;;;;;10.93;83.42;96398.50;104987;1259;96631;-82
2024/03/12 09:59:14;;;;;;;36.10;24.20;;;;;;;10.98;83.36;96400.92;104980;1267;97109;-82
2024/03/12 10:01:44;;;;;;;36.90;23.80;;;;;;;11.03;83.13;96404.80;105098;1253;100883;-87
2024/03/12 10:04:12;;;;;;;36.60;23.50;;;;;;;11.08;82.96;96406.21;105076;1258;101355;-82
2024/03/12 10:06:40;;;;;;;37.70;23.50;;;;;;;11.12;82.70;96408.98;104925;1259;99988;-82
2024/03/12 10:09:17;;;;;;;35.00;22.10;;;;;;;11.15;82.55;96408.84;104987;1260;96610;-83
2024/03/12 10:11:45;;;;;;;35.50;21.80;;;;;;;11.18;82.40;96411.55;105021;1259;97347;-83
2024/03/12 10:14:17;;;;;;;32.50;22.80;;;;;;;11.17;82.26;96414.66;105079;1259;101179;-82
2024/03/12 10:16:45;;;;;;;35.80;21.10;;;;;;;11.18;82.16;96416.14;105109;1259;101603;-82
2024/03/12 10:19:15;;;;;;;29.00;19.20;;;;;;;11.19;81.90;96414.06;105013;1270;100213;-83
2024/03/12 10:21:44;;;;;;;28.10;20.00;;;;;;;11.17;81.67;96412.43;104981;1271;97509;-82
2024/03/12 10:24:14;;;;;;;32.10;21.50;;;;;;;11.16;81.54;96414.57;105036;1266;97176;-82
2024/03/12 10:26:46;;;;;;;30.80;22.00;;;;;;;11.15;81.46;96413.33;105054;1260;102521;-83
2024/03/12 10:29:18;;;;;;;32.30;22.50;;;;;;;11.15;81.47;96416.98;105001;1256;101667;-82
2024/03/12 10:31:47;;;;;;;33.10;22.00;;;;;;;11.12;81.51;96414.88;104954;1260;99998;-82
2024/03/12 10:34:19;;;;;;;36.90;23.70;;;;;;;11.09;81.37;96411.05;105046;1267;97347;-82
2024/03/12 10:36:49;;;;;;;35.00;22.00;;;;;;;11.08;81.38;96412.11;105073;1267;97385;-82
2024/03/12 10:39:27;;;;;;;31.90;22.30;;;;;;;11.06;81.35;96414.81;105037;1258;110022;-82
2024/03/12 10:42:00;;;;;;;31.20;21.50;;;;;;;11.11;81.55;96415.17;105015;1267;101237;-88
2024/03/12 10:44:30;;;;;;;30.60;21.80;;;;;;;11.18;81.57;96413.77;105035;1267;100022;-88
2024/03/12 10:47:00;;;;;;;31.60;22.10;;;;;;;11.27;81.56;96407.86;105007;1268;96587;-82
2024/03/12 10:49:29;;;;;;;54.50;27.50;;;;;;;11.35;81.45;96406.86;105016;1259;98076;-82
2024/03/12 10:51:57;;;;;;;36.30;23.00;;;;;;;11.41;81.20;96410.97;104998;1259;102540;-82
2024/03/12 10:54:27;;;;;;;42.30;28.80;;;;;;;11.45;81.09;96410.18;105089;1261;100163;-83
2024/03/12 10:56:56;;;;;;;45.30;33.10;;;;;;;11.51;80.94;96404.30;105029;1267;100218;-83
2024/03/12 10:59:25;;;;;;;46.60;32.30;;;;;;;11.58;80.73;96402.01;105016;1261;96663;-83
2024/03/12 11:01:53;;;;;;;35.70;27.20;;;;;;;11.67;80.71;96405.95;104942;1260;97781;-83
2024/03/12 11:04:22;;;;;;;35.90;22.90;;;;;;;11.76;80.90;96400.02;104975;1259;102059;-83
2024/03/12 11:06:52;;;;;;;30.40;21.00;;;;;;;11.85;80.84;96398.41;105069;1260;100169;-83
2024/03/12 11:09:22;;;;;;;27.90;20.40;;;;;;;11.86;80.51;96397.41;105026;1258;99947;-83
2024/03/12 11:11:50;;;;;;;31.80;20.80;;;;;;;11.96;80.35;96395.46;105052;1254;96658;-83
2024/03/12 11:14:18;;;;;;;32.60;21.90;;;;;;;12.05;80.18;96396.16;105026;1270;96702;-83
2024/03/12 11:16:45;;;;;;;32.80;21.80;;;;;;;12.13;79.94;96391.00;105072;1257;101104;-83
2024/03/12 11:19:17;;;;;;;36.30;22.00;;;;;;;12.34;80.00;96388.30;104955;1254;101351;-83
2024/03/12 11:21:47;;;;;;;31.20;21.40;;;;;;;12.72;80.15;96390.86;104938;1254;99930;-87
2024/03/12 11:24:25;;;;;;;33.40;21.80;;;;;;;13.04;79.52;96385.56;105041;1254;97490;-88